sensor_id;sensor_type;location;lat;lon;timestamp;temperature;humidity
23251;DHT22;11794;49.730;10.088;2023-04-01T00:00:52;9.40;99.90
23251;DHT22;11794;49.730;10.088;2023-04-01T00:03:18;9.40;99.90
23251;DHT22;11794;49.730;10.088;2023-04-01T00:05:45;9.40;99.90
23251;DHT22;11794;49.730;10.088;2023-04-01T00:08:11;9.40;99.90
23251;DHT22;11794;49.730;10.088;2023-04-01T00:10:37;9.30;99.90
23251;DHT22;11794;49.730;10.088;2023-04-01T00:13:02;9.30;99.90
23251;DHT22;11794;49.730;10.088;2023-04-01T00:15:28;9.30;99.90
23251;DHT22;11794;49.730;10.088;2023-04-01T00:17:54;9.30;99.90
23251;DHT22;11794;49.730;10.088;2023-04-01T00:20:20;9.40;99.90
23251;DHT22;11794;49.730;10.088;2023-04-01T00:22:46;9.40;99.90
23251;DHT22;11794;49.730;10.088;2023-04-01T00:25:11;9.40;99.90
23251;DHT22;11794;49.730;10.088;2023-04-01T00:27:38;9.40;99.90
23251;DHT22;11794;49.730;10.088;2023-04-01T00:30:04;9.40;99.90
23251;DHT22;11794;49.730;10.088;2023-04-01T00:32:29;9.40;99.90
23251;DHT22;11794;49.730;10.088;2023-04-01T00:34:56;9.40;99.90
23251;DHT22;11794;49.730;10.088;2023-04-01T00:37:24;9.40;99.90
23251;DHT22;11794;49.730;10.088;2023-04-01T00:39:49;9.40;99.90
23251;DHT22;11794;49.730;10.088;2023-04-01T00:42:15;9.50;99.90
23251;DHT22;11794;49.730;10.088;2023-04-01T00:44:41;9.50;99.90
23251;DHT22;11794;49.730;10.088;2023-04-01T00:47:07;9.50;99.90
23251;DHT22;11794;49.730;10.088;2023-04-01T00:49:39;9.50;99.90
23251;DHT22;11794;49.730;10.088;2023-04-01T00:52:07;9.50;99.90
23251;DHT22;11794;49.730;10.088;2023-04-01T00:54:34;9.50;99.90
23251;DHT22;11794;49.730;10.088;2023-04-01T00:57:25;9.50;99.90
23251;DHT22;11794;49.730;10.088;2023-04-01T00:59:51;9.50;99.90
23251;DHT22;11794;49.730;10.088;2023-04-01T01:02:18;9.50;99.90
23251;DHT22;11794;49.730;10.088;2023-04-01T01:04:44;9.50;99.90
23251;DHT22;11794;49.730;10.088;2023-04-01T01:07:26;9.50;99.90
23251;DHT22;11794;49.730;10.088;2023-04-01T01:10:34;9.50;99.90
23251;DHT22;11794;49.730;10.088;2023-04-01T01:13:22;9.40;99.90
23251;DHT22;11794;49.730;10.088;2023-04-01T01:21:30;9.40;99.90
23251;DHT22;11794;49.730;10.088;2023-04-01T01:24:26;9.40;99.90
23251;DHT22;11794;49.730;10.088;2023-04-01T01:27:04;9.40;99.90
23251;DHT22;11794;49.730;10.088;2023-04-01T01:30:05;9.40;99.90
23251;DHT22;11794;49.730;10.088;2023-04-01T01:33:13;9.40;99.90
23251;DHT22;11794;49.730;10.088;2023-04-01T01:35:55;9.40;99.90
23251;DHT22;11794;49.730;10.088;2023-04-01T01:38:24;9.40;99.90
23251;DHT22;11794;49.730;10.088;2023-04-01T01:40:52;9.40;99.90
23251;DHT22;11794;49.730;10.088;2023-04-01T01:43:23;9.40;99.90
23251;DHT22;11794;49.730;10.088;2023-04-01T01:45:54;9.30;99.90
23251;DHT22;11794;49.730;10.088;2023-04-01T01:48:22;9.30;99.90
23251;DHT22;11794;49.730;10.088;2023-04-01T01:50:49;9.30;99.90
23251;DHT22;11794;49.730;10.088;2023-04-01T01:53:15;9.30;99.90
23251;DHT22;11794;49.730;10.088;2023-04-01T01:55:43;9.40;99.90
23251;DHT22;11794;49.730;10.088;2023-04-01T01:58:13;9.40;99.90
23251;DHT22;11794;49.730;10.088;2023-04-01T02:00:43;9.30;99.90
23251;DHT22;11794;49.730;10.088;2023-04-01T02:03:12;9.40;99.90
23251;DHT22;11794;49.730;10.088;2023-04-01T02:05:39;9.30;99.90
23251;DHT22;11794;49.730;10.088;2023-04-01T02:08:12;9.40;99.90
23251;DHT22;11794;49.730;10.088;2023-04-01T02:10:42;9.30;99.90
23251;DHT22;11794;49.730;10.088;2023-04-01T02:13:22;9.30;99.90
23251;DHT22;11794;49.730;10.088;2023-04-01T02:15:51;9.30;99.90
23251;DHT22;11794;49.730;10.088;2023-04-01T02:18:21;9.30;99.90
23251;DHT22;11794;49.730;10.088;2023-04-01T02:20:47;9.30;99.90
23251;DHT22;11794;49.730;10.088;2023-04-01T02:23:14;9.30;99.90
23251;DHT22;11794;49.730;10.088;2023-04-01T02:25:41;9.20;99.90
23251;DHT22;11794;49.730;10.088;2023-04-01T02:28:08;9.30;99.90
23251;DHT22;11794;49.730;10.088;2023-04-01T02:30:35;9.20;99.90
23251;DHT22;11794;49.730;10.088;2023-04-01T02:33:02;9.20;99.90
23251;DHT22;11794;49.730;10.088;2023-04-01T02:35:28;9.20;99.90
23251;DHT22;11794;49.730;10.088;2023-04-01T02:37:55;9.20;99.90
23251;DHT22;11794;49.730;10.088;2023-04-01T02:40:21;9.10;99.90
23251;DHT22;11794;49.730;10.088;2023-04-01T02:42:46;9.20;99.90
23251;DHT22;11794;49.730;10.088;2023-04-01T02:45:13;9.20;99.90
23251;DHT22;11794;49.730;10.088;2023-04-01T02:47:39;9.20;99.90
23251;DHT22;11794;49.730;10.088;2023-04-01T02:50:05;9.20;99.90
23251;DHT22;11794;49.730;10.088;2023-04-01T02:52:31;9.20;99.90
23251;DHT22;11794;49.730;10.088;2023-04-01T02:54:57;9.20;99.90
23251;DHT22;11794;49.730;10.088;2023-04-01T02:57:23;9.20;99.90
23251;DHT22;11794;49.730;10.088;2023-04-01T02:59:49;9.20;99.90
23251;DHT22;11794;49.730;10.088;2023-04-01T03:02:15;9.30;99.90
23251;DHT22;11794;49.730;10.088;2023-04-01T03:04:41;9.30;99.90
23251;DHT22;11794;49.730;10.088;2023-04-01T03:07:07;9.30;99.90
23251;DHT22;11794;49.730;10.088;2023-04-01T03:09:33;9.30;99.90
23251;DHT22;11794;49.730;10.088;2023-04-01T03:11:59;9.20;99.90
23251;DHT22;11794;49.730;10.088;2023-04-01T03:14:25;9.30;99.90
23251;DHT22;11794;49.730;10.088;2023-04-01T03:16:50;9.30;99.90
23251;DHT22;11794;49.730;10.088;2023-04-01T03:19:16;9.30;99.90
23251;DHT22;11794;49.730;10.088;2023-04-01T03:21:41;9.30;99.90
23251;DHT22;11794;49.730;10.088;2023-04-01T03:24:07;9.30;99.90
23251;DHT22;11794;49.730;10.088;2023-04-01T03:26:33;9.30;99.90
23251;DHT22;11794;49.730;10.088;2023-04-01T03:28:58;9.30;99.90
23251;DHT22;11794;49.730;10.088;2023-04-01T03:31:24;9.30;99.90
23251;DHT22;11794;49.730;10.088;2023-04-01T03:33:50;9.30;99.90
23251;DHT22;11794;49.730;10.088;2023-04-01T03:36:15;9.30;99.90
23251;DHT22;11794;49.730;10.088;2023-04-01T03:38:41;9.30;99.90
23251;DHT22;11794;49.730;10.088;2023-04-01T03:41:12;9.30;99.90
23251;DHT22;11794;49.730;10.088;2023-04-01T03:43:38;9.20;99.90
23251;DHT22;11794;49.730;10.088;2023-04-01T03:46:03;9.20;99.90
23251;DHT22;11794;49.730;10.088;2023-04-01T03:48:29;9.10;99.90
23251;DHT22;11794;49.730;10.088;2023-04-01T03:50:54;9.10;99.90
23251;DHT22;11794;49.730;10.088;2023-04-01T03:53:20;9.10;99.90
23251;DHT22;11794;49.730;10.088;2023-04-01T03:55:45;9.10;99.90
23251;DHT22;11794;49.730;10.088;2023-04-01T03:58:12;9.10;99.90
23251;DHT22;11794;49.730;10.088;2023-04-01T04:00:37;9.20;99.90
23251;DHT22;11794;49.730;10.088;2023-04-01T04:03:02;9.20;99.90
23251;DHT22;11794;49.730;10.088;2023-04-01T04:05:28;9.20;99.90
23251;DHT22;11794;49.730;10.088;2023-04-01T04:07:54;9.20;99.90
23251;DHT22;11794;49.730;10.088;2023-04-01T04:10:20;9.20;99.90
23251;DHT22;11794;49.730;10.088;2023-04-01T04:12:49;9.20;99.90
23251;DHT22;11794;49.730;10.088;2023-04-01T04:15:15;9.10;99.90
23251;DHT22;11794;49.730;10.088;2023-04-01T04:17:40;9.20;99.90
23251;DHT22;11794;49.730;10.088;2023-04-01T04:20:07;9.10;99.90
23251;DHT22;11794;49.730;10.088;2023-04-01T04:22:33;9.20;99.90
23251;DHT22;11794;49.730;10.088;2023-04-01T04:24:59;9.10;99.90
23251;DHT22;11794;49.730;10.088;2023-04-01T04:27:24;9.20;99.90
23251;DHT22;11794;49.730;10.088;2023-04-01T04:29:50;9.10;99.90
23251;DHT22;11794;49.730;10.088;2023-04-01T04:32:15;9.10;99.90
23251;DHT22;11794;49.730;10.088;2023-04-01T04:34:41;9.10;99.90
23251;DHT22;11794;49.730;10.088;2023-04-01T04:37:06;9.00;99.90
23251;DHT22;11794;49.730;10.088;2023-04-01T04:39:32;9.00;99.90
23251;DHT22;11794;49.730;10.088;2023-04-01T04:41:57;9.00;99.90
23251;DHT22;11794;49.730;10.088;2023-04-01T04:44:23;8.90;99.90
23251;DHT22;11794;49.730;10.088;2023-04-01T04:46:48;8.90;99.90
23251;DHT22;11794;49.730;10.088;2023-04-01T04:49:14;8.90;99.90
23251;DHT22;11794;49.730;10.088;2023-04-01T04:51:39;8.90;99.90
23251;DHT22;11794;49.730;10.088;2023-04-01T04:54:05;8.80;99.90
23251;DHT22;11794;49.730;10.088;2023-04-01T04:56:31;8.80;99.90
23251;DHT22;11794;49.730;10.088;2023-04-01T04:58:57;8.80;99.90
23251;DHT22;11794;49.730;10.088;2023-04-01T05:01:23;8.80;99.90
23251;DHT22;11794;49.730;10.088;2023-04-01T05:03:49;8.70;99.90
23251;DHT22;11794;49.730;10.088;2023-04-01T05:06:16;8.70;99.90
23251;DHT22;11794;49.730;10.088;2023-04-01T05:08:43;8.70;99.90
23251;DHT22;11794;49.730;10.088;2023-04-01T05:11:13;8.70;99.90
23251;DHT22;11794;49.730;10.088;2023-04-01T05:13:39;8.70;99.90
23251;DHT22;11794;49.730;10.088;2023-04-01T05:16:09;8.80;99.90
23251;DHT22;11794;49.730;10.088;2023-04-01T05:18:34;8.80;99.90
23251;DHT22;11794;49.730;10.088;2023-04-01T05:21:00;8.70;99.90
23251;DHT22;11794;49.730;10.088;2023-04-01T05:23:25;8.80;99.90
23251;DHT22;11794;49.730;10.088;2023-04-01T05:25:51;8.80;99.90
23251;DHT22;11794;49.730;10.088;2023-04-01T05:28:18;8.90;99.90
23251;DHT22;11794;49.730;10.088;2023-04-01T05:30:44;8.90;99.90
23251;DHT22;11794;49.730;10.088;2023-04-01T05:33:12;8.90;99.90
23251;DHT22;11794;49.730;10.088;2023-04-01T05:35:38;8.90;99.90
23251;DHT22;11794;49.730;10.088;2023-04-01T05:38:04;8.90;99.90
23251;DHT22;11794;49.730;10.088;2023-04-01T05:40:31;9.00;99.90
23251;DHT22;11794;49.730;10.088;2023-04-01T05:42:56;9.00;99.90
23251;DHT22;11794;49.730;10.088;2023-04-01T05:45:22;9.00;99.90
23251;DHT22;11794;49.730;10.088;2023-04-01T05:47:48;9.10;99.90
23251;DHT22;11794;49.730;10.088;2023-04-01T05:50:13;9.20;99.90
23251;DHT22;11794;49.730;10.088;2023-04-01T05:52:39;9.20;99.90
23251;DHT22;11794;49.730;10.088;2023-04-01T05:55:05;9.20;99.90
23251;DHT22;11794;49.730;10.088;2023-04-01T05:57:31;9.20;99.90
23251;DHT22;11794;49.730;10.088;2023-04-01T05:59:56;9.20;99.90
23251;DHT22;11794;49.730;10.088;2023-04-01T06:02:23;9.20;99.90
23251;DHT22;11794;49.730;10.088;2023-04-01T06:04:49;9.30;99.90
23251;DHT22;11794;49.730;10.088;2023-04-01T06:07:16;9.30;99.90
23251;DHT22;11794;49.730;10.088;2023-04-01T06:09:44;9.30;99.90
23251;DHT22;11794;49.730;10.088;2023-04-01T06:12:38;9.30;99.90
23251;DHT22;11794;49.730;10.088;2023-04-01T06:15:25;9.30;99.90
23251;DHT22;11794;49.730;10.088;2023-04-01T06:23:32;9.30;99.90
23251;DHT22;11794;49.730;10.088;2023-04-01T06:29:06;9.30;99.90
23251;DHT22;11794;49.730;10.088;2023-04-01T06:31:37;9.40;99.90
23251;DHT22;11794;49.730;10.088;2023-04-01T06:34:15;9.40;99.90
23251;DHT22;11794;49.730;10.088;2023-04-01T06:39:47;9.50;99.90
23251;DHT22;11794;49.730;10.088;2023-04-01T06:42:28;9.60;99.90
23251;DHT22;11794;49.730;10.088;2023-04-01T06:45:27;9.60;99.90
23251;DHT22;11794;49.730;10.088;2023-04-01T06:53:31;9.90;99.90
23251;DHT22;11794;49.730;10.088;2023-04-01T06:56:07;9.80;99.90
23251;DHT22;11794;49.730;10.088;2023-04-01T06:58:37;9.90;99.90
23251;DHT22;11794;49.730;10.088;2023-04-01T07:01:08;9.80;99.90
23251;DHT22;11794;49.730;10.088;2023-04-01T07:03:44;9.80;99.90
23251;DHT22;11794;49.730;10.088;2023-04-01T07:06:22;9.80;99.90
23251;DHT22;11794;49.730;10.088;2023-04-01T07:08:49;9.80;99.90
23251;DHT22;11794;49.730;10.088;2023-04-01T07:11:25;9.80;99.90
23251;DHT22;11794;49.730;10.088;2023-04-01T07:13:57;9.80;99.90
23251;DHT22;11794;49.730;10.088;2023-04-01T07:16:34;9.90;99.90
23251;DHT22;11794;49.730;10.088;2023-04-01T07:19:30;10.00;99.90
23251;DHT22;11794;49.730;10.088;2023-04-01T07:22:03;10.00;99.90
23251;DHT22;11794;49.730;10.088;2023-04-01T07:24:44;10.00;99.90
23251;DHT22;11794;49.730;10.088;2023-04-01T07:27:11;9.90;99.90
23251;DHT22;11794;49.730;10.088;2023-04-01T07:29:37;9.80;99.90
23251;DHT22;11794;49.730;10.088;2023-04-01T07:36:05;9.70;99.90
23251;DHT22;11794;49.730;10.088;2023-04-01T07:43:56;9.70;99.90
23251;DHT22;11794;49.730;10.088;2023-04-01T07:46:40;9.70;99.90
23251;DHT22;11794;49.730;10.088;2023-04-01T07:49:26;9.70;99.90
23251;DHT22;11794;49.730;10.088;2023-04-01T07:52:08;9.70;99.90
23251;DHT22;11794;49.730;10.088;2023-04-01T07:54:49;9.70;99.90
23251;DHT22;11794;49.730;10.088;2023-04-01T07:57:23;9.80;99.90
23251;DHT22;11794;49.730;10.088;2023-04-01T08:07:55;9.50;99.90
23251;DHT22;11794;49.730;10.088;2023-04-01T08:10:33;9.30;99.90
23251;DHT22;11794;49.730;10.088;2023-04-01T08:16:01;9.10;99.90
23251;DHT22;11794;49.730;10.088;2023-04-01T08:18:34;9.10;99.90
23251;DHT22;11794;49.730;10.088;2023-04-01T08:21:07;9.00;99.90
23251;DHT22;11794;49.730;10.088;2023-04-01T08:23:41;8.90;99.90
23251;DHT22;11794;49.730;10.088;2023-04-01T08:26:22;8.90;99.90
23251;DHT22;11794;49.730;10.088;2023-04-01T08:29:00;8.90;99.90
23251;DHT22;11794;49.730;10.088;2023-04-01T08:34:25;9.00;99.90
23251;DHT22;11794;49.730;10.088;2023-04-01T08:36:58;9.00;99.90
23251;DHT22;11794;49.730;10.088;2023-04-01T08:39:37;9.00;99.90
23251;DHT22;11794;49.730;10.088;2023-04-01T08:48:23;9.00;99.90
23251;DHT22;11794;49.730;10.088;2023-04-01T08:54:04;8.90;99.90
23251;DHT22;11794;49.730;10.088;2023-04-01T08:56:53;8.90;99.90
23251;DHT22;11794;49.730;10.088;2023-04-01T09:16:53;8.90;99.90
23251;DHT22;11794;49.730;10.088;2023-04-01T09:23:24;9.20;99.90
23251;DHT22;11794;49.730;10.088;2023-04-01T09:26:08;9.20;99.90
23251;DHT22;11794;49.730;10.088;2023-04-01T09:37:27;9.50;99.90
23251;DHT22;11794;49.730;10.088;2023-04-01T09:54:13;9.70;99.90
23251;DHT22;11794;49.730;10.088;2023-04-01T10:03:02;9.90;99.90
23251;DHT22;11794;49.730;10.088;2023-04-01T10:05:58;10.00;99.90
23251;DHT22;11794;49.730;10.088;2023-04-01T10:08:57;9.90;99.90
23251;DHT22;11794;49.730;10.088;2023-04-01T10:25:34;9.80;99.90
23251;DHT22;11794;49.730;10.088;2023-04-01T10:51:18;10.00;99.90
23251;DHT22;11794;49.730;10.088;2023-04-01T10:56:55;9.90;99.90
23251;DHT22;11794;49.730;10.088;2023-04-01T11:00:04;10.10;99.90
23251;DHT22;11794;49.730;10.088;2023-04-01T11:08:46;10.30;99.90
23251;DHT22;11794;49.730;10.088;2023-04-01T11:14:33;10.30;99.90
23251;DHT22;11794;49.730;10.088;2023-04-01T11:22:37;10.10;99.90
23251;DHT22;11794;49.730;10.088;2023-04-01T11:31:01;10.10;99.90
23251;DHT22;11794;49.730;10.088;2023-04-01T11:33:28;10.10;99.90
23251;DHT22;11794;49.730;10.088;2023-04-01T11:39:00;10.00;99.90
23251;DHT22;11794;49.730;10.088;2023-04-01T11:44:23;10.00;99.90
23251;DHT22;11794;49.730;10.088;2023-04-01T11:49:59;9.90;99.90
23251;DHT22;11794;49.730;10.088;2023-04-01T12:01:08;10.10;99.90
23251;DHT22;11794;49.730;10.088;2023-04-01T12:03:59;10.00;99.90
23251;DHT22;11794;49.730;10.088;2023-04-01T12:06:59;10.00;99.90
23251;DHT22;11794;49.730;10.088;2023-04-01T12:12:35;9.90;99.90
23251;DHT22;11794;49.730;10.088;2023-04-01T12:15:11;10.00;99.90
23251;DHT22;11794;49.730;10.088;2023-04-01T12:20:56;10.10;99.90
23251;DHT22;11794;49.730;10.088;2023-04-01T12:29:47;10.20;99.90
23251;DHT22;11794;49.730;10.088;2023-04-01T12:46:31;10.40;99.90
23251;DHT22;11794;49.730;10.088;2023-04-01T12:51:51;10.40;99.90
23251;DHT22;11794;49.730;10.088;2023-04-01T12:54:44;10.30;99.90
23251;DHT22;11794;49.730;10.088;2023-04-01T12:58:12;10.40;99.90
23251;DHT22;11794;49.730;10.088;2023-04-01T13:11:42;10.50;99.90
23251;DHT22;11794;49.730;10.088;2023-04-01T13:22:51;10.40;99.90
23251;DHT22;11794;49.730;10.088;2023-04-01T13:27:49;10.30;99.90
23251;DHT22;11794;49.730;10.088;2023-04-01T13:30:24;10.30;99.90
23251;DHT22;11794;49.730;10.088;2023-04-01T13:35:38;10.30;99.90
23251;DHT22;11794;49.730;10.088;2023-04-01T13:38:32;10.30;99.90
23251;DHT22;11794;49.730;10.088;2023-04-01T13:44:22;10.10;99.90
23251;DHT22;11794;49.730;10.088;2023-04-01T13:50:03;10.00;99.90
23251;DHT22;11794;49.730;10.088;2023-04-01T13:55:49;9.90;99.90
23251;DHT22;11794;49.730;10.088;2023-04-01T14:04:06;10.00;99.90
23251;DHT22;11794;49.730;10.088;2023-04-01T14:12:36;10.30;99.90
23251;DHT22;11794;49.730;10.088;2023-04-01T14:20:39;10.50;99.90
23251;DHT22;11794;49.730;10.088;2023-04-01T14:23:32;10.40;99.90
23251;DHT22;11794;49.730;10.088;2023-04-01T14:29:05;10.50;99.90
23251;DHT22;11794;49.730;10.088;2023-04-01T14:34:49;10.70;99.90
23251;DHT22;11794;49.730;10.088;2023-04-01T14:43:12;10.70;99.90
23251;DHT22;11794;49.730;10.088;2023-04-01T14:51:33;10.40;99.90
23251;DHT22;11794;49.730;10.088;2023-04-01T14:56:42;10.30;99.90
23251;DHT22;11794;49.730;10.088;2023-04-01T15:13:13;10.10;99.90
23251;DHT22;11794;49.730;10.088;2023-04-01T15:24:10;10.20;99.90
23251;DHT22;11794;49.730;10.088;2023-04-01T15:29:47;10.20;99.90
23251;DHT22;11794;49.730;10.088;2023-04-01T15:32:21;10.20;99.90
23251;DHT22;11794;49.730;10.088;2023-04-01T15:54:17;10.20;99.90
23251;DHT22;11794;49.730;10.088;2023-04-01T16:04:58;10.50;99.90
23251;DHT22;11794;49.730;10.088;2023-04-01T16:15:46;10.20;99.90
23251;DHT22;11794;49.730;10.088;2023-04-01T16:18:34;10.10;99.90
23251;DHT22;11794;49.730;10.088;2023-04-01T16:23:51;9.90;99.90
23251;DHT22;11794;49.730;10.088;2023-04-01T16:26:43;9.90;99.90
23251;DHT22;11794;49.730;10.088;2023-04-01T16:31:55;9.80;99.90
23251;DHT22;11794;49.730;10.088;2023-04-01T16:34:44;9.90;99.90
23251;DHT22;11794;49.730;10.088;2023-04-01T16:37:21;10.00;99.90
23251;DHT22;11794;49.730;10.088;2023-04-01T16:42:51;10.10;99.90
23251;DHT22;11794;49.730;10.088;2023-04-01T16:45:31;10.20;99.90
23251;DHT22;11794;49.730;10.088;2023-04-01T16:48:45;10.20;99.90
23251;DHT22;11794;49.730;10.088;2023-04-01T16:51:16;10.20;99.90
23251;DHT22;11794;49.730;10.088;2023-04-01T16:53:52;10.10;99.90
23251;DHT22;11794;49.730;10.088;2023-04-01T16:59:13;10.00;99.90
23251;DHT22;11794;49.730;10.088;2023-04-01T17:02:16;9.80;99.90
23251;DHT22;11794;49.730;10.088;2023-04-01T17:05:16;9.70;99.90
23251;DHT22;11794;49.730;10.088;2023-04-01T17:10:39;9.70;99.90
23251;DHT22;11794;49.730;10.088;2023-04-01T17:13:23;9.60;99.90
23251;DHT22;11794;49.730;10.088;2023-04-01T17:21:44;9.50;99.90
23251;DHT22;11794;49.730;10.088;2023-04-01T17:35:35;9.40;99.90
23251;DHT22;11794;49.730;10.088;2023-04-01T17:45:54;9.40;99.90
23251;DHT22;11794;49.730;10.088;2023-04-01T17:48:42;9.40;99.90
23251;DHT22;11794;49.730;10.088;2023-04-01T17:51:25;9.40;99.90
23251;DHT22;11794;49.730;10.088;2023-04-01T17:54:17;9.40;99.90
23251;DHT22;11794;49.730;10.088;2023-04-01T17:59:42;9.40;99.90
23251;DHT22;11794;49.730;10.088;2023-04-01T18:05:34;9.30;99.90
23251;DHT22;11794;49.730;10.088;2023-04-01T18:08:15;9.30;99.90
23251;DHT22;11794;49.730;10.088;2023-04-01T18:16:47;9.30;99.90
23251;DHT22;11794;49.730;10.088;2023-04-01T18:24:56;9.30;99.90
23251;DHT22;11794;49.730;10.088;2023-04-01T18:27:39;9.30;99.90
23251;DHT22;11794;49.730;10.088;2023-04-01T18:30:20;9.30;99.90
23251;DHT22;11794;49.730;10.088;2023-04-01T18:33:07;9.40;99.90
23251;DHT22;11794;49.730;10.088;2023-04-01T18:36:55;9.30;99.90
23251;DHT22;11794;49.730;10.088;2023-04-01T18:38:55;9.30;99.90
23251;DHT22;11794;49.730;10.088;2023-04-01T18:53:14;9.30;99.90
23251;DHT22;11794;49.730;10.088;2023-04-01T18:55:54;9.30;99.90
23251;DHT22;11794;49.730;10.088;2023-04-01T18:58:46;9.30;99.90
23251;DHT22;11794;49.730;10.088;2023-04-01T19:06:49;9.20;99.90
23251;DHT22;11794;49.730;10.088;2023-04-01T19:09:22;9.20;99.90
23251;DHT22;11794;49.730;10.088;2023-04-01T19:12:09;9.20;99.90
23251;DHT22;11794;49.730;10.088;2023-04-01T19:20:29;9.20;99.90
23251;DHT22;11794;49.730;10.088;2023-04-01T19:23:17;9.20;99.90
23251;DHT22;11794;49.730;10.088;2023-04-01T19:25:54;9.10;99.90
23251;DHT22;11794;49.730;10.088;2023-04-01T19:36:25;9.10;99.90
23251;DHT22;11794;49.730;10.088;2023-04-01T19:39:00;9.10;99.90
23251;DHT22;11794;49.730;10.088;2023-04-01T19:44:41;9.20;99.90
23251;DHT22;11794;49.730;10.088;2023-04-01T19:49:46;9.20;99.90
23251;DHT22;11794;49.730;10.088;2023-04-01T19:52:39;9.20;99.90
23251;DHT22;11794;49.730;10.088;2023-04-01T19:58:20;9.10;99.90
23251;DHT22;11794;49.730;10.088;2023-04-01T20:00:52;9.10;99.90
23251;DHT22;11794;49.730;10.088;2023-04-01T20:17:00;9.10;99.90
23251;DHT22;11794;49.730;10.088;2023-04-01T20:19:36;9.10;99.90
23251;DHT22;11794;49.730;10.088;2023-04-01T20:22:09;9.10;99.90
23251;DHT22;11794;49.730;10.088;2023-04-01T20:24:44;9.00;99.90
23251;DHT22;11794;49.730;10.088;2023-04-01T20:32:45;9.10;99.90
23251;DHT22;11794;49.730;10.088;2023-04-01T20:35:40;9.10;99.90
23251;DHT22;11794;49.730;10.088;2023-04-01T20:46:48;9.10;99.90
23251;DHT22;11794;49.730;10.088;2023-04-01T20:49:51;9.10;99.90
23251;DHT22;11794;49.730;10.088;2023-04-01T20:52:32;9.10;99.90
23251;DHT22;11794;49.730;10.088;2023-04-01T20:57:59;9.10;99.90
23251;DHT22;11794;49.730;10.088;2023-04-01T21:00:45;9.10;99.90
23251;DHT22;11794;49.730;10.088;2023-04-01T21:03:38;9.00;99.90
23251;DHT22;11794;49.730;10.088;2023-04-01T21:06:27;9.00;99.90
23251;DHT22;11794;49.730;10.088;2023-04-01T21:11:46;9.00;99.90
23251;DHT22;11794;49.730;10.088;2023-04-01T21:14:45;8.90;99.90
23251;DHT22;11794;49.730;10.088;2023-04-01T21:17:29;9.00;99.90
23251;DHT22;11794;49.730;10.088;2023-04-01T21:20:26;9.00;99.90
23251;DHT22;11794;49.730;10.088;2023-04-01T21:28:42;8.90;99.90
23251;DHT22;11794;49.730;10.088;2023-04-01T21:31:24;8.90;99.90
23251;DHT22;11794;49.730;10.088;2023-04-01T21:49:31;8.80;99.90
23251;DHT22;11794;49.730;10.088;2023-04-01T21:52:33;8.70;99.90
23251;DHT22;11794;49.730;10.088;2023-04-01T22:06:49;8.60;99.90
23251;DHT22;11794;49.730;10.088;2023-04-01T22:12:40;8.70;99.90
23251;DHT22;11794;49.730;10.088;2023-04-01T22:15:45;8.60;99.90
23251;DHT22;11794;49.730;10.088;2023-04-01T22:18:34;8.60;99.90
23251;DHT22;11794;49.730;10.088;2023-04-01T22:29:17;8.60;99.90
23251;DHT22;11794;49.730;10.088;2023-04-01T22:31:53;8.60;99.90
23251;DHT22;11794;49.730;10.088;2023-04-01T22:34:45;8.50;99.90
23251;DHT22;11794;49.730;10.088;2023-04-01T22:50:39;8.50;99.90
23251;DHT22;11794;49.730;10.088;2023-04-01T22:55:44;8.50;99.90
23251;DHT22;11794;49.730;10.088;2023-04-01T22:58:41;8.50;99.90
23251;DHT22;11794;49.730;10.088;2023-04-01T23:01:13;8.50;99.90
23251;DHT22;11794;49.730;10.088;2023-04-01T23:03:41;8.50;99.90
23251;DHT22;11794;49.730;10.088;2023-04-01T23:06:19;8.50;99.90
23251;DHT22;11794;49.730;10.088;2023-04-01T23:11:28;8.60;99.90
23251;DHT22;11794;49.730;10.088;2023-04-01T23:25:21;8.60;99.90
23251;DHT22;11794;49.730;10.088;2023-04-01T23:33:21;8.70;99.90
23251;DHT22;11794;49.730;10.088;2023-04-01T23:35:50;8.60;99.90
23251;DHT22;11794;49.730;10.088;2023-04-01T23:38:17;8.60;99.90
23251;DHT22;11794;49.730;10.088;2023-04-01T23:40:43;8.60;99.90
23251;DHT22;11794;49.730;10.088;2023-04-01T23:45:48;8.60;99.90
23251;DHT22;11794;49.730;10.088;2023-04-01T23:48:15;8.50;99.90
23251;DHT22;11794;49.730;10.088;2023-04-01T23:50:42;8.60;99.90
23251;DHT22;11794;49.730;10.088;2023-04-01T23:53:30;8.50;99.90
23251;DHT22;11794;49.730;10.088;2023-04-01T23:55:58;8.50;99.90
23251;DHT22;11794;49.730;10.088;2023-04-01T23:58:26;8.50;99.90
